Time;durP1;ratioP1;P1;durP2;ratioP2;P2;SDS_P1;SDS_P2;PMS_P1;PMS_P2;Temp;Humidity;BMP_temperature;BMP_pressure;BME280_temperature;BME280_humidity;BME280_pressure;Samples;Min_cycle;Max_cycle;Signal;HPM_P1;HPM_P2
2022/01/26 00:06:33;;;;;;;68.93;34.92;;;52.00;2227.20;;;;;;4866661;29;20450;-77
2022/01/26 00:08:59;;;;;;;50.22;27.70;;;52.00;2227.20;;;;;;4867460;29;20029;-80
2022/01/26 00:11:27;;;;;;;58.28;26.70;;;51.80;2227.20;;;;;;4867068;29;20040;-79
2022/01/26 00:13:54;;;;;;;42.50;22.20;;;51.70;2227.20;;;;;;4867958;29;20204;-80
2022/01/26 00:18:49;;;;;;;50.65;24.67;;;51.70;2227.20;;;;;;4867753;29;20089;-82
2022/01/26 00:21:26;;;;;;;51.17;24.80;;;51.50;2227.20;;;;;;4867981;29;20504;-78
2022/01/26 00:26:33;;;;;;;58.60;23.33;;;51.60;2227.20;;;;;;4867928;29;20033;-78
2022/01/26 00:29:10;;;;;;;44.53;23.55;;;51.50;2227.20;;;;;;4864873;29;20470;-80
2022/01/26 00:33:07;;;;;;;;;;;51.50;2227.20;;;;;;4888565;29;20040;-82
2022/01/26 00:40:09;;;;;;;54.45;25.83;;;51.60;2227.20;;;;;;4907803;29;20066;-81
2022/01/26 00:42:40;;;;;;;56.97;28.05;;;51.70;2227.20;;;;;;4912067;29;20474;-76
2022/01/26 00:45:08;;;;;;;56.40;29.05;;;51.60;2227.20;;;;;;4914343;29;20038;-81
2022/01/26 00:47:34;;;;;;;53.75;27.83;;;51.60;2227.20;;;;;;4907444;29;20028;-80
2022/01/26 00:50:06;;;;;;;48.67;24.92;;;51.50;2227.20;;;;;;4906312;29;20020;-82
2022/01/26 00:52:44;;;;;;;54.72;26.00;;;51.70;2227.20;;;;;;4908002;29;20028;-82
2022/01/26 00:55:13;;;;;;;55.30;27.02;;;51.80;2227.20;;;;;;4908838;29;20108;-80
2022/01/26 00:57:39;;;;;;;52.88;27.52;;;51.80;2227.20;;;;;;4889287;29;20552;-75
2022/01/26 01:00:08;;;;;;;;;;;51.80;2227.20;;;;;;4908966;29;20024;-79
2022/01/26 01:02:34;;;;;;;49.85;25.65;;;51.80;2227.20;;;;;;4905108;29;19922;-79
2022/01/26 01:05:04;;;;;;;60.00;28.00;;;51.90;2227.20;;;;;;4915058;29;20020;-77
2022/01/26 01:07:34;;;;;;;50.95;25.10;;;52.00;2227.20;;;;;;4891107;29;20394;-80
2022/01/26 01:10:00;;;;;;;62.10;27.88;;;52.00;2227.20;;;;;;4907071;29;20036;-78
2022/01/26 01:12:26;;;;;;;52.05;26.83;;;51.90;2227.20;;;;;;4908555;29;20036;-81
2022/01/26 01:14:51;;;;;;;;;;;51.90;2227.20;;;;;;4908682;29;20107;-82
2022/01/26 01:17:24;;;;;;;56.67;27.20;;;51.90;2227.20;;;;;;4906980;29;19918;-81
2022/01/26 01:20:11;;;;;;;56.72;28.30;;;51.90;2227.20;;;;;;4907915;29;20381;-82
2022/01/26 01:28:19;;;;;;;55.92;27.70;;;76.80;2227.20;;;;;;4896963;29;20119;-80
2022/01/26 01:30:50;;;;;;;52.75;25.58;;;76.80;2227.20;;;;;;4899179;29;20029;-77
2022/01/26 01:33:20;;;;;;;48.20;26.13;;;76.80;2227.20;;;;;;4899370;29;20037;-80
2022/01/26 01:35:47;;;;;;;50.63;25.52;;;76.80;2227.20;;;;;;4898907;29;20020;-80
2022/01/26 01:38:17;;;;;;;49.08;24.50;;;76.90;2227.20;;;;;;4898311;29;20122;-81
2022/01/26 01:40:45;;;;;;;64.28;29.05;;;77.20;2227.20;;;;;;4898763;29;20035;-80
2022/01/26 01:43:12;;;;;;;55.10;26.65;;;76.90;2227.20;;;;;;4898988;29;20035;-79
2022/01/26 01:45:45;;;;;;;49.30;25.20;;;76.90;2227.20;;;;;;4898785;29;20127;-80
2022/01/26 01:48:16;;;;;;;52.75;26.23;;;76.90;2227.20;;;;;;4882902;29;20055;-80
2022/01/26 01:50:42;;;;;;;48.65;25.90;;;52.10;2227.20;;;;;;4898858;29;20048;-81
2022/01/26 01:53:13;;;;;;;45.05;21.88;;;76.80;2227.20;;;;;;4898272;29;20536;-81
2022/01/26 01:55:40;;;;;;;49.33;23.15;;;52.10;2227.20;;;;;;4898682;29;20035;-81
2022/01/26 01:58:07;;;;;;;42.42;22.25;;;52.00;2227.20;;;;;;4898573;29;20549;-80
2022/01/26 02:00:33;;;;;;;46.35;22.88;;;52.00;2227.20;;;;;;4898373;29;20470;-80
2022/01/26 02:03:00;;;;;;;43.60;20.48;;;52.10;2227.20;;;;;;4898710;29;20047;-81
2022/01/26 02:05:26;;;;;;;47.55;22.85;;;52.10;2227.20;;;;;;4909923;29;20054;-81
2022/01/26 02:07:52;;;;;;;;;;;76.90;2227.20;;;;;;4908679;29;20028;-79
2022/01/26 02:10:18;;;;;;;40.03;21.38;;;76.90;2227.20;;;;;;4892553;29;19951;-80
2022/01/26 02:12:48;;;;;;;39.10;21.52;;;76.90;2227.20;;;;;;4896723;29;20393;-82
2022/01/26 02:15:20;;;;;;;41.95;21.15;;;76.80;2227.20;;;;;;4918198;29;20028;-82
2022/01/26 02:55:34;;;;;;;39.85;20.65;;;76.90;2227.20;;;;;;4915847;29;20021;-80
2022/01/26 02:58:47;;;;;;;36.33;19.48;;;76.80;2227.20;;;;;;4911355;29;20027;-80
2022/01/26 03:00:51;;;;;;;36.28;19.55;;;76.80;2227.20;;;;;;4905805;29;20032;-81
2022/01/26 03:03:41;;;;;;;36.60;19.35;;;76.90;2227.20;;;;;;4908038;29;20021;-74
2022/01/26 03:06:11;;;;;;;31.77;17.70;;;76.90;2227.20;;;;;;4908520;29;20031;-81
2022/01/26 03:08:44;;;;;;;34.22;19.27;;;76.90;2227.20;;;;;;4907222;29;20056;-81
2022/01/26 03:11:13;;;;;;;39.45;18.75;;;77.00;2227.20;;;;;;4911656;29;20040;-77
2022/01/26 03:13:45;;;;;;;40.13;18.92;;;77.00;2227.20;;;;;;4891314;29;20123;-80
2022/01/26 03:16:17;;;;;;;36.45;18.95;;;77.00;2227.20;;;;;;4910101;29;20536;-80
2022/01/26 03:21:35;;;;;;;43.38;19.42;;;77.10;2227.20;;;;;;4915711;29;20385;-80
2022/01/26 03:34:51;;;;;;;41.53;19.00;;;77.30;2227.20;;;;;;4916542;29;20071;-80
2022/01/26 03:37:16;;;;;;;35.42;17.85;;;77.30;2227.20;;;;;;4909201;29;20024;-78
2022/01/26 03:39:44;;;;;;;36.83;18.48;;;77.20;2227.20;;;;;;4907260;29;20537;-80
2022/01/26 03:42:14;;;;;;;31.27;17.65;;;77.30;2227.20;;;;;;4907166;29;20070;-77
2022/01/26 03:44:40;;;;;;;40.17;20.13;;;77.30;2227.20;;;;;;4909876;29;20016;-76
2022/01/26 03:47:07;;;;;;;40.67;20.08;;;77.40;2227.20;;;;;;4908039;29;20031;-80
2022/01/26 03:49:34;;;;;;;38.70;19.77;;;77.20;2227.20;;;;;;4908372;29;20112;-79
2022/01/26 03:52:00;;;;;;;43.13;20.83;;;77.20;2227.20;;;;;;4911459;29;20020;-76
2022/01/26 03:54:25;;;;;;;45.95;21.02;;;77.30;2227.20;;;;;;4907899;29;20035;-80
2022/01/26 03:56:51;;;;;;;;;;;77.40;2227.20;;;;;;4909840;29;20207;-81
2022/01/26 03:59:17;;;;;;;50.53;21.50;;;77.40;2227.20;;;;;;4906857;29;19954;-80
2022/01/26 04:01:42;;;;;;;;;;;77.50;2227.20;;;;;;4909458;29;20067;-81
2022/01/26 04:04:09;;;;;;;43.63;21.60;;;77.50;2227.20;;;;;;4909319;29;20370;-79
2022/01/26 04:06:35;;;;;;;47.90;20.80;;;77.40;2227.20;;;;;;4908858;29;20505;-78
2022/01/26 04:09:04;;;;;;;46.22;22.75;;;77.50;2227.20;;;;;;4906508;29;20024;-80
2022/01/26 04:11:36;;;;;;;51.03;24.33;;;77.50;2227.20;;;;;;4907007;29;20042;-78
2022/01/26 04:14:06;;;;;;;65.70;28.08;;;77.50;2227.20;;;;;;4908071;29;20023;-79
2022/01/26 04:16:32;;;;;;;63.70;28.45;;;77.50;2227.20;;;;;;4890784;29;20037;-78
2022/01/26 04:18:58;;;;;;;57.92;25.55;;;77.50;2227.20;;;;;;4906079;29;20025;-79
2022/01/26 04:21:43;;;;;;;53.63;25.15;;;77.30;2227.20;;;;;;4907925;29;20032;-76
2022/01/26 04:24:30;;;;;;;59.00;30.33;;;77.20;2227.20;;;;;;4890266;29;20536;-88
2022/01/26 04:27:12;;;;;;;53.47;25.55;;;77.40;2227.20;;;;;;4911045;29;20028;-82
2022/01/26 04:29:38;;;;;;;51.50;25.33;;;77.30;2227.20;;;;;;4903828;29;20044;-77
2022/01/26 04:32:06;;;;;;;48.42;24.42;;;77.40;2227.20;;;;;;4905628;29;20064;-82
2022/01/26 04:34:33;;;;;;;41.22;21.58;;;77.50;2227.20;;;;;;4908589;29;20052;-83
2022/01/26 04:37:13;;;;;;;40.50;21.63;;;77.50;2227.20;;;;;;4909313;29;20478;-81
2022/01/26 04:39:52;;;;;;;48.15;21.85;;;77.50;2227.20;;;;;;4906087;29;20053;-82
2022/01/26 04:43:23;;;;;;;40.40;22.33;;;77.60;2227.20;;;;;;4912358;29;20032;-76
2022/01/26 04:45:13;;;;;;;45.45;22.83;;;77.60;2227.20;;;;;;4904217;29;20063;-81
2022/01/26 04:47:39;;;;;;;48.88;23.70;;;77.40;2227.20;;;;;;4899891;29;20442;-83
2022/01/26 04:50:08;;;;;;;49.17;24.95;;;77.30;2227.20;;;;;;4882235;29;20029;-85
2022/01/26 04:52:33;;;;;;;47.13;23.88;;;77.20;2227.20;;;;;;4897995;29;20025;-82
2022/01/26 04:54:59;;;;;;;47.42;25.00;;;77.20;2227.20;;;;;;4898054;29;20080;-78
2022/01/26 04:57:25;;;;;;;;;;;77.20;2227.20;;;;;;4898338;29;20044;-75
2022/01/26 04:59:51;;;;;;;52.80;23.90;;;77.00;2227.20;;;;;;4897843;29;19908;-77
2022/01/26 05:02:16;;;;;;;;;;;77.20;2227.20;;;;;;4898017;29;20037;-83
2022/01/26 05:04:42;;;;;;;51.45;24.33;;;77.20;2227.20;;;;;;4897719;29;20372;-82
2022/01/26 05:07:08;;;;;;;;;;;77.20;2227.20;;;;;;4897135;29;20032;-76
2022/01/26 05:09:33;;;;;;;52.60;23.20;;;77.30;2227.20;;;;;;4897614;29;19998;-81
2022/01/26 05:12:01;;;;;;;55.47;25.83;;;77.40;2227.20;;;;;;4881224;29;20120;-77
2022/01/26 05:14:27;;;;;;;49.60;23.83;;;77.30;2227.20;;;;;;4896462;29;20079;-76
2022/01/26 05:16:53;;;;;;;46.63;24.15;;;77.40;2227.20;;;;;;4897577;29;20020;-84
2022/01/26 05:19:18;;;;;;;;;;;77.40;2227.20;;;;;;4881639;29;20425;-80
2022/01/26 05:21:44;;;;;;;49.83;24.08;;;77.50;2227.20;;;;;;4897558;29;19916;-76
2022/01/26 05:24:10;;;;;;;;;;;77.50;2227.20;;;;;;4897754;29;20025;-82
2022/01/26 05:26:40;;;;;;;50.05;25.55;;;77.50;2227.20;;;;;;4897601;29;19911;-82
2022/01/26 05:29:07;;;;;;;50.35;25.85;;;77.50;2227.20;;;;;;4897770;29;20385;-84
2022/01/26 05:31:36;;;;;;;62.38;29.35;;;77.60;2227.20;;;;;;4897420;29;20025;-80
2022/01/26 05:34:02;;;;;;;93.15;44.60;;;77.60;2227.20;;;;;;4896547;29;20024;-77
2022/01/26 05:36:28;;;;;;;80.95;38.95;;;77.60;2227.20;;;;;;4897634;29;20385;-80
2022/01/26 05:38:53;;;;;;;90.78;42.17;;;77.60;2227.20;;;;;;4897584;29;20052;-84
2022/01/26 05:41:19;;;;;;;;;;;77.70;2227.20;;;;;;4897954;29;20045;-86
2022/01/26 05:43:45;;;;;;;75.38;36.95;;;77.70;2227.20;;;;;;4881019;29;20254;-81
2022/01/26 05:46:18;;;;;;;;;;;77.70;2227.20;;;;;;4880840;29;20032;-86
2022/01/26 05:48:45;;;;;;;67.43;32.85;;;77.70;2227.20;;;;;;4880733;29;20046;-90
2022/01/26 05:51:12;;;;;;;66.95;32.40;;;77.60;2227.20;;;;;;4897662;29;20486;-89
2022/01/26 05:53:40;;;;;;;55.85;27.77;;;77.70;2227.20;;;;;;4880686;29;20036;-79
2022/01/26 05:56:06;;;;;;;58.38;27.98;;;77.70;2227.20;;;;;;4880978;29;20040;-85
2022/01/26 05:58:32;;;;;;;46.10;25.73;;;77.70;2227.20;;;;;;4897498;29;20112;-81
2022/01/26 06:00:59;;;;;;;;;;;77.70;2227.20;;;;;;4881272;29;20474;-80
2022/01/26 06:03:26;;;;;;;38.80;22.13;;;77.70;2227.20;;;;;;4880570;29;19918;-81
2022/01/26 06:05:54;;;;;;;39.00;20.77;;;77.60;2227.20;;;;;;4897739;29;20382;-81
2022/01/26 06:08:21;;;;;;;41.47;21.92;;;77.60;2227.20;;;;;;4896870;29;20035;-76
2022/01/26 06:10:47;;;;;;;42.28;21.58;;;77.60;2227.20;;;;;;4881102;29;20112;-89
2022/01/26 06:13:13;;;;;;;44.17;23.77;;;77.60;2227.20;;;;;;4883855;29;20494;-87
2022/01/26 06:15:39;;;;;;;44.92;23.88;;;77.60;2227.20;;;;;;4899433;29;20068;-82
2022/01/26 06:18:05;;;;;;;43.25;21.30;;;77.50;2227.20;;;;;;4883856;29;20033;-87
2022/01/26 06:20:31;;;;;;;44.42;21.75;;;77.60;2227.20;;;;;;4883682;29;20029;-88
2022/01/26 06:22:57;;;;;;;41.45;21.55;;;77.50;2227.20;;;;;;4884021;29;20045;-79
2022/01/26 06:25:23;;;;;;;48.20;23.25;;;77.50;2227.20;;;;;;4884144;29;20111;-86
2022/01/26 06:27:51;;;;;;;45.53;23.40;;;77.50;2227.20;;;;;;4883908;29;20466;-82
2022/01/26 06:30:17;;;;;;;47.92;23.88;;;77.60;2227.20;;;;;;4883382;29;20394;-86
2022/01/26 06:32:43;;;;;;;37.40;21.83;;;77.60;2227.20;;;;;;4900784;29;20027;-88
2022/01/26 06:35:09;;;;;;;;;;;77.60;2227.20;;;;;;4900703;29;20032;-75
2022/01/26 06:37:35;;;;;;;47.38;24.38;;;77.70;2227.20;;;;;;4883362;29;19912;-88
2022/01/26 06:40:02;;;;;;;;;;;77.50;2227.20;;;;;;4899723;29;20103;-87
2022/01/26 06:42:33;;;;;;;36.13;17.20;;;77.50;2227.20;;;;;;4900099;29;19915;-75
2022/01/26 06:45:16;;;;;;;45.83;22.77;;;77.40;2227.20;;;;;;4883661;29;20164;-76
2022/01/26 06:48:39;;;;;;;44.88;23.60;;;77.50;2227.20;;;;;;4898648;29;20060;-75
2022/01/26 06:50:35;;;;;;;39.15;21.00;;;77.50;2227.20;;;;;;4898786;29;20176;-77
2022/01/26 06:53:01;;;;;;;49.05;24.50;;;77.60;2227.20;;;;;;4883394;29;20029;-88
2022/01/26 06:55:27;;;;;;;42.65;22.73;;;77.60;2227.20;;;;;;4899638;29;20040;-87
2022/01/26 06:57:53;;;;;;;;;;;77.60;2227.20;;;;;;4900567;29;20033;-90
2022/01/26 07:00:18;;;;;;;43.88;20.88;;;77.60;2227.20;;;;;;4899889;29;19922;-89
2022/01/26 07:02:44;;;;;;;;;;;77.50;2227.20;;;;;;4899834;29;20040;-76
2022/01/26 07:05:12;;;;;;;39.30;19.33;;;77.50;2227.20;;;;;;4883056;29;19907;-76
2022/01/26 07:07:38;;;;;;;44.85;22.55;;;77.60;2227.20;;;;;;4899443;29;20111;-80
2022/01/26 07:10:05;;;;;;;39.33;21.25;;;77.60;2227.20;;;;;;4899718;29;20048;-78
2022/01/26 07:12:31;;;;;;;45.10;22.60;;;77.60;2227.20;;;;;;4882986;29;20033;-83
2022/01/26 07:23:03;;;;;;;51.65;23.48;;;77.70;2227.20;;;;;;4898350;29;20537;-88
2022/01/26 07:25:29;;;;;;;69.07;35.03;;;77.40;2227.20;;;;;;4899309;29;20060;-77
2022/01/26 07:27:56;;;;;;;49.20;27.23;;;77.50;2227.20;;;;;;4882589;29;20064;-83
2022/01/26 07:30:22;;;;;;;51.05;23.05;;;77.60;2227.20;;;;;;4899416;29;20025;-85
2022/01/26 07:32:48;;;;;;;46.25;23.30;;;77.50;2227.20;;;;;;4899211;29;20373;-86
2022/01/26 07:35:14;;;;;;;42.13;22.95;;;77.40;2227.20;;;;;;4882656;29;20044;-75
2022/01/26 07:37:43;;;;;;;39.88;22.10;;;77.40;2227.20;;;;;;4898992;29;20103;-77
2022/01/26 07:40:09;;;;;;;41.10;23.88;;;77.40;2227.20;;;;;;4882507;29;20577;-76
2022/01/26 07:42:37;;;;;;;42.13;22.92;;;77.70;2227.20;;;;;;4898986;29;20040;-87
2022/01/26 07:45:05;;;;;;;39.50;21.85;;;77.60;2227.20;;;;;;4899110;29;20039;-76
2022/01/26 07:47:31;;;;;;;44.10;23.75;;;77.60;2227.20;;;;;;4898949;29;20040;-83
2022/01/26 07:50:04;;;;;;;44.00;22.38;;;77.60;2227.20;;;;;;4882277;29;20037;-78
2022/01/26 07:52:35;;;;;;;41.53;22.80;;;77.60;2227.20;;;;;;4899030;29;20043;-76
2022/01/26 07:55:01;;;;;;;42.17;21.88;;;77.60;2227.20;;;;;;4898549;29;20029;-76
2022/01/26 07:57:26;;;;;;;40.92;22.00;;;77.60;2227.20;;;;;;4898917;29;20032;-82
2022/01/26 07:59:55;;;;;;;48.25;23.13;;;77.70;2227.20;;;;;;4898505;29;20532;-82
2022/01/26 08:02:21;;;;;;;46.55;22.65;;;77.70;2227.20;;;;;;4898431;29;20103;-81
2022/01/26 08:04:47;;;;;;;44.58;21.45;;;102.50;2227.20;;;;;;4896864;29;20032;-75
2022/01/26 08:07:13;;;;;;;;;;;102.40;2227.20;;;;;;4899054;29;20037;-76
2022/01/26 08:09:43;;;;;;;45.33;22.30;;;102.50;2227.20;;;;;;4898901;29;19911;-80
2022/01/26 08:12:10;;;;;;;46.58;23.52;;;102.50;2227.20;;;;;;4881717;29;20036;-88
2022/01/26 08:14:36;;;;;;;40.00;21.88;;;102.40;2227.20;;;;;;4898408;29;20028;-87
2022/01/26 08:17:03;;;;;;;41.17;21.42;;;102.50;2227.20;;;;;;4898530;29;20413;-76
2022/01/26 08:19:28;;;;;;;41.05;21.17;;;102.50;2227.20;;;;;;4881649;29;20374;-79
2022/01/26 08:21:59;;;;;;;42.88;21.88;;;102.50;2227.20;;;;;;4881852;29;20099;-83
2022/01/26 08:24:25;;;;;;;37.05;20.58;;;102.50;2227.20;;;;;;4881905;29;20046;-83
2022/01/26 08:26:51;;;;;;;45.00;20.98;;;77.70;2227.20;;;;;;4898261;29;20092;-79
2022/01/26 08:29:23;;;;;;;38.67;20.13;;;77.70;2227.20;;;;;;4881415;29;20065;-75
2022/01/26 08:31:49;;;;;;;39.20;20.33;;;77.70;2227.20;;;;;;4881611;29;20028;-79
2022/01/26 08:34:17;;;;;;;41.85;22.38;;;77.70;2227.20;;;;;;4897275;29;20035;-85
2022/01/26 08:36:43;;;;;;;41.83;21.92;;;102.40;2227.20;;;;;;4898430;29;20073;-85
2022/01/26 08:39:09;;;;;;;;;;;77.70;2227.20;;;;;;4898152;29;20119;-86
2022/01/26 08:41:35;;;;;;;44.45;23.02;;;77.70;2227.20;;;;;;4881453;29;20352;-88
2022/01/26 08:44:00;;;;;;;;;;;102.40;2227.20;;;;;;4898352;29;20032;-83
2022/01/26 08:46:26;;;;;;;46.28;23.13;;;102.50;2227.20;;;;;;4898456;29;20002;-76
2022/01/26 08:48:52;;;;;;;51.35;24.40;;;102.70;2227.20;;;;;;4897721;29;20461;-78
2022/01/26 08:51:18;;;;;;;;;;;102.60;2227.20;;;;;;4898380;29;20132;-79
2022/01/26 08:53:45;;;;;;;45.13;24.10;;;102.70;2227.20;;;;;;4898114;29;19942;-90
2022/01/26 08:56:11;;;;;;;47.42;25.67;;;102.70;2227.20;;;;;;4897819;29;20072;-87
2022/01/26 08:58:37;;;;;;;52.90;25.55;;;102.70;2227.20;;;;;;4897983;29;20033;-90
2022/01/26 09:01:03;;;;;;;52.65;26.17;;;102.80;2227.20;;;;;;4897710;29;20091;-76
2022/01/26 09:03:30;;;;;;;65.90;37.35;;;102.80;2227.20;;;;;;4897848;29;20032;-89
2022/01/26 09:05:56;;;;;;;86.65;38.47;;;102.80;2227.20;;;;;;4896847;29;20076;-89
2022/01/26 09:08:24;;;;;;;88.22;41.53;;;102.80;2227.20;;;;;;4897541;29;20029;-80
2022/01/26 09:10:56;;;;;;;55.42;27.00;;;102.90;2227.20;;;;;;4897927;29;20493;-86
2022/01/26 09:13:22;;;;;;;62.10;27.30;;;102.80;2227.20;;;;;;4881120;29;20033;-80
2022/01/26 09:15:47;;;;;;;51.30;26.75;;;102.70;2227.20;;;;;;4881174;29;20028;-87
2022/01/26 09:18:18;;;;;;;;;;;102.70;2227.20;;;;;;4881779;29;20065;-89
2022/01/26 09:20:44;;;;;;;58.35;29.60;;;102.80;2227.20;;;;;;4881081;29;19916;-83
2022/01/26 09:23:10;;;;;;;47.45;25.23;;;102.50;2227.20;;;;;;4881019;29;20112;-82
2022/01/26 09:25:36;;;;;;;;;;;102.80;2227.20;;;;;;4881812;29;20466;-86
2022/01/26 09:28:02;;;;;;;49.70;25.05;;;102.80;2227.20;;;;;;4881335;29;19986;-87
2022/01/26 09:30:28;;;;;;;47.53;23.92;;;103.00;2227.20;;;;;;4896888;29;20052;-86
2022/01/26 09:32:54;;;;;;;44.70;24.48;;;102.90;2227.20;;;;;;4897557;29;20055;-85
2022/01/26 09:35:19;;;;;;;87.35;39.70;;;102.80;2227.20;;;;;;4896638;29;20029;-85
2022/01/26 09:37:45;;;;;;;58.65;30.17;;;102.70;2227.20;;;;;;4897241;29;20032;-86
2022/01/26 09:40:11;;;;;;;;;;;102.60;2227.20;;;;;;4897542;29;20041;-85
2022/01/26 09:42:37;;;;;;;53.25;26.35;;;102.80;2227.20;;;;;;4897460;29;19922;-76
2022/01/26 09:45:04;;;;;;;;;;;102.50;2227.20;;;;;;4896846;29;20029;-84
2022/01/26 09:47:30;;;;;;;;;;;102.70;2227.20;;;;;;4899965;29;20352;-75
2022/01/26 09:49:56;;;;;;;50.25;26.95;;;102.70;2227.20;;;;;;4884074;29;19966;-76
2022/01/26 09:52:36;;;;;;;;;;;102.70;2227.20;;;;;;4901383;29;20041;-89
2022/01/26 09:55:05;;;;;;;49.38;27.33;;;102.80;2227.20;;;;;;4898145;29;19908;-89
2022/01/26 09:57:31;;;;;;;53.72;27.15;;;102.60;2227.20;;;;;;4900957;29;20033;-83
2022/01/26 09:59:58;;;;;;;62.05;29.60;;;102.60;2227.20;;;;;;4911055;29;20043;-76
2022/01/26 10:02:29;;;;;;;52.22;27.33;;;102.70;2227.20;;;;;;4918332;29;20123;-82
2022/01/26 10:05:07;;;;;;;51.78;26.30;;;102.90;2227.20;;;;;;4919520;29;20035;-83
2022/01/26 10:15:47;;;;;;;57.03;26.30;;;102.90;2227.20;;;;;;4919309;29;20067;-86
2022/01/26 10:18:16;;;;;;;51.80;27.52;;;102.90;2227.20;;;;;;4902323;29;20036;-76
2022/01/26 10:20:45;;;;;;;56.85;27.27;;;103.10;2227.20;;;;;;4902316;29;20032;-80
2022/01/26 10:23:16;;;;;;;57.40;28.00;;;103.00;2227.20;;;;;;4913866;29;20032;-76
2022/01/26 10:25:44;;;;;;;51.67;26.55;;;103.00;2227.20;;;;;;4893545;29;20110;-81
2022/01/26 10:28:11;;;;;;;51.47;27.30;;;103.10;2227.20;;;;;;4912453;29;20036;-84
2022/01/26 10:30:41;;;;;;;56.08;28.85;;;102.80;2227.20;;;;;;4905164;29;20041;-82
2022/01/26 10:33:10;;;;;;;53.22;26.58;;;103.00;2227.20;;;;;;4908733;29;20024;-78
2022/01/26 10:35:36;;;;;;;49.97;25.08;;;103.00;2227.20;;;;;;4910198;29;20029;-79
2022/01/26 10:38:02;;;;;;;54.88;25.73;;;103.00;2227.20;;;;;;4913749;29;20036;-83
2022/01/26 10:40:28;;;;;;;;;;;102.80;2227.20;;;;;;4910810;29;20044;-81
2022/01/26 10:43:11;;;;;;;81.32;44.03;;;102.90;2227.20;;;;;;4910794;29;19915;-75
2022/01/26 10:45:47;;;;;;;50.38;24.90;;;103.00;2227.20;;;;;;4895301;29;20036;-76
2022/01/26 10:48:23;;;;;;;53.45;25.85;;;102.90;2227.20;;;;;;4899996;29;20481;-76
2022/01/26 10:53:41;;;;;;;52.63;26.88;;;103.20;2227.20;;;;;;4910200;29;20400;-84
2022/01/26 10:56:07;;;;;;;71.35;33.70;;;103.10;2227.20;;;;;;4896032;29;20473;-75
2022/01/26 10:58:33;;;;;;;57.70;30.05;;;103.20;2227.20;;;;;;4916725;29;20056;-75
2022/01/26 11:00:59;;;;;;;58.65;31.25;;;103.20;2227.20;;;;;;4899464;29;20493;-75
2022/01/26 11:03:25;;;;;;;52.80;27.73;;;103.20;2227.20;;;;;;4898303;29;20039;-74
2022/01/26 11:05:52;;;;;;;50.08;26.35;;;103.20;2227.20;;;;;;4899267;29;20028;-74
2022/01/26 11:08:19;;;;;;;48.55;27.35;;;103.10;2227.20;;;;;;4899357;29;20036;-74
2022/01/26 11:10:46;;;;;;;59.00;28.50;;;103.20;2227.20;;;;;;4899683;29;20044;-74
2022/01/26 11:13:24;;;;;;;60.15;30.25;;;103.20;2227.20;;;;;;4899412;29;20025;-76
2022/01/26 11:15:50;;;;;;;50.30;25.95;;;128.00;2252.80;;;;;;4899457;29;20037;-82
2022/01/26 11:18:21;;;;;;;49.17;25.73;;;103.30;2227.20;;;;;;4906612;29;20028;-76
2022/01/26 11:20:52;;;;;;;54.85;29.48;;;103.30;2227.20;;;;;;4908964;29;20031;-75
2022/01/26 11:23:35;;;;;;;53.53;27.13;;;128.00;2252.80;;;;;;4909200;29;20052;-90
2022/01/26 11:26:02;;;;;;;51.05;25.65;;;103.30;2227.20;;;;;;4909137;29;20035;-87
2022/01/26 11:28:29;;;;;;;52.75;27.35;;;103.20;2227.20;;;;;;4912966;29;20056;-88
2022/01/26 11:31:01;;;;;;;52.97;26.70;;;103.30;2227.20;;;;;;4917793;29;20060;-75
2022/01/26 11:33:30;;;;;;;54.10;27.17;;;103.20;2227.20;;;;;;4918172;29;20059;-75
2022/01/26 11:35:58;;;;;;;55.03;26.65;;;103.10;2227.20;;;;;;4900532;29;20028;-84
2022/01/26 11:46:51;;;;;;;63.35;29.33;;;103.00;2227.20;;;;;;4917450;29;20032;-81
2022/01/26 11:49:33;;;;;;;54.00;28.65;;;103.10;2227.20;;;;;;4917167;29;20119;-75
2022/01/26 11:51:59;;;;;;;54.33;30.67;;;103.00;2227.20;;;;;;4894809;29;20140;-75
2022/01/26 11:54:27;;;;;;;;;;;103.10;2227.20;;;;;;4899166;29;20032;-85
2022/01/26 11:57:08;;;;;;;55.55;28.30;;;103.00;2227.20;;;;;;4882102;29;19959;-75
2022/01/26 11:59:37;;;;;;;52.47;28.30;;;103.00;2227.20;;;;;;4898613;29;20032;-77
2022/01/26 12:02:19;;;;;;;51.97;27.85;;;103.00;2227.20;;;;;;4898395;29;20041;-74
2022/01/26 12:04:55;;;;;;;48.75;26.05;;;103.10;2227.20;;;;;;4901806;29;20458;-86
2022/01/26 12:07:23;;;;;;;39.55;21.67;;;103.10;2227.20;;;;;;4908044;29;20500;-76
2022/01/26 12:09:49;;;;;;;53.00;26.95;;;103.20;2227.20;;;;;;4904956;29;20111;-79
2022/01/26 12:12:24;;;;;;;52.50;27.08;;;103.20;2227.20;;;;;;4891471;29;20060;-80
2022/01/26 12:15:07;;;;;;;57.67;30.13;;;103.20;2227.20;;;;;;4905931;29;20028;-78
2022/01/26 12:17:39;;;;;;;52.75;26.83;;;103.30;2227.20;;;;;;4909059;29;20050;-81
2022/01/26 12:32:04;;;;;;;51.28;27.73;;;103.30;2227.20;;;;;;4916570;29;20016;-75
2022/01/26 12:32:19;;;;;;;49.25;25.08;;;103.30;2227.20;;;;;;4905831;29;20080;-79
2022/01/26 12:41:08;;;;;;;53.20;25.58;;;103.30;2227.20;;;;;;4905125;29;20080;-81
2022/01/26 12:42:42;;;;;;;48.88;26.17;;;103.30;2227.20;;;;;;4902816;29;20036;-79
2022/01/26 12:45:08;;;;;;;54.25;27.00;;;103.30;2227.20;;;;;;4881249;29;20041;-82
2022/01/26 12:47:34;;;;;;;52.88;27.60;;;128.00;2252.80;;;;;;4896447;29;20394;-76
2022/01/26 12:50:01;;;;;;;55.70;28.77;;;103.20;2227.20;;;;;;4897784;29;20115;-79
2022/01/26 12:52:28;;;;;;;57.38;27.67;;;103.30;2227.20;;;;;;4896058;29;20123;-81
2022/01/26 12:54:54;;;;;;;53.47;27.25;;;103.20;2227.20;;;;;;4897689;29;20028;-80
2022/01/26 12:57:20;;;;;;;60.28;28.48;;;103.30;2227.20;;;;;;4902993;29;20370;-82
2022/01/26 12:59:45;;;;;;;;;;;103.30;2227.20;;;;;;4906044;29;20111;-76
2022/01/26 13:02:11;;;;;;;52.25;25.77;;;103.20;2227.20;;;;;;4906070;29;19964;-77
2022/01/26 13:04:36;;;;;;;;;;;103.20;2227.20;;;;;;4907903;29;20032;-78
2022/01/26 13:07:04;;;;;;;57.40;26.92;;;103.20;2227.20;;;;;;4904261;29;20009;-76
2022/01/26 13:09:38;;;;;;;59.33;28.40;;;103.10;2227.20;;;;;;4904226;29;20097;-76
2022/01/26 13:12:04;;;;;;;60.10;30.08;;;103.10;2227.20;;;;;;4900144;29;20043;-81
2022/01/26 13:23:09;;;;;;;62.83;32.80;;;103.20;2227.20;;;;;;4911287;29;20499;-79
2022/01/26 13:26:10;;;;;;;64.53;31.13;;;103.20;2227.20;;;;;;4913439;29;20025;-78
2022/01/26 13:28:54;;;;;;;65.30;31.63;;;103.20;2227.20;;;;;;4896143;29;20096;-80
2022/01/26 13:55:22;;;;;;;54.30;27.80;;;103.10;2227.20;;;;;;4919901;29;20160;-82
2022/01/26 14:00:18;;;;;;;59.75;29.35;;;102.90;2227.20;;;;;;4920064;29;20031;-84
2022/01/26 14:02:43;;;;;;;65.28;30.33;;;103.00;2227.20;;;;;;4902847;29;20047;-81
2022/01/26 14:05:10;;;;;;;56.05;28.42;;;102.90;2227.20;;;;;;4902938;29;20028;-77
2022/01/26 14:07:35;;;;;;;58.38;28.85;;;102.80;2227.20;;;;;;4902796;29;20401;-76
2022/01/26 14:10:03;;;;;;;53.65;27.95;;;103.00;2227.20;;;;;;4899804;29;20040;-78
2022/01/26 14:12:33;;;;;;;57.25;28.00;;;103.00;2227.20;;;;;;4911874;29;20040;-85
2022/01/26 14:15:00;;;;;;;58.08;30.30;;;103.00;2227.20;;;;;;4892311;29;20024;-79
2022/01/26 14:27:51;;;;;;;68.80;32.53;;;102.90;2227.20;;;;;;4863099;29;20400;-84
2022/01/26 14:51:48;;;;;;;62.53;31.25;;;102.80;2227.20;;;;;;4860397;29;20086;-84
2022/01/26 15:40:05;;;;;;;72.47;30.77;;;102.80;2227.20;;;;;;4908910;29;20050;-77
2022/01/26 16:37:15;;;;;;;61.05;28.60;;;102.70;2227.20;;;;;;4838855;29;20129;-83
2022/01/26 17:47:30;;;;;;;70.22;32.45;;;103.00;2227.20;;;;;;4905272;29;20028;-84
2022/01/26 18:33:08;;;;;;;55.40;28.08;;;102.90;2227.20;;;;;;4916603;29;20437;-80
2022/01/26 18:51:35;;;;;;;58.92;27.52;;;103.00;2227.20;;;;;;4905044;29;20116;-76
2022/01/26 18:54:00;;;;;;;61.15;28.60;;;102.90;2227.20;;;;;;4900142;29;20072;-75
2022/01/26 18:56:27;;;;;;;51.80;25.38;;;102.80;2227.20;;;;;;4900011;29;20032;-82
2022/01/26 18:58:54;;;;;;;67.35;28.92;;;102.80;2227.20;;;;;;4900275;29;20056;-81
2022/01/26 19:01:19;;;;;;;;;;;102.80;2227.20;;;;;;4900041;29;20029;-83
2022/01/26 19:03:45;;;;;;;55.50;27.35;;;102.80;2227.20;;;;;;4899986;29;19919;-76
2022/01/26 19:06:11;;;;;;;;;;;102.80;2227.20;;;;;;4883437;29;20080;-76
2022/01/26 19:08:39;;;;;;;65.75;29.33;;;102.80;2227.20;;;;;;4882666;29;19916;-80
2022/01/26 19:11:07;;;;;;;61.75;28.73;;;102.70;2227.20;;;;;;4898969;29;20036;-82